sensor_id;sensor_type;location;lat;lon;timestamp;pressure;altitude;pressure_sealevel;temperature;humidity
46211;BME280;52144;48.040;-1.594;2023-02-15T00:02:01;102126.78;;;7.31;79.87
46211;BME280;52144;48.040;-1.594;2023-02-15T00:04:29;102130.19;;;7.42;80.18
46211;BME280;52144;48.040;-1.594;2023-02-15T00:07:13;102123.13;;;7.41;80.00
46211;BME280;52144;48.040;-1.594;2023-02-15T00:09:41;102122.22;;;7.43;79.32
46211;BME280;52144;48.040;-1.594;2023-02-15T00:12:09;102112.59;;;7.35;80.35
46211;BME280;52144;48.040;-1.594;2023-02-15T00:14:37;102111.59;;;7.43;78.81
46211;BME280;52144;48.040;-1.594;2023-02-15T00:17:05;102118.19;;;7.02;81.75
46211;BME280;52144;48.040;-1.594;2023-02-15T00:19:33;102108.41;;;7.06;80.55
46211;BME280;52144;48.040;-1.594;2023-02-15T00:22:01;102111.47;;;6.57;83.05
46211;BME280;52144;48.040;-1.594;2023-02-15T00:24:30;102104.47;;;6.50;83.74
46211;BME280;52144;48.040;-1.594;2023-02-15T00:26:58;102105.38;;;6.46;83.53
46211;BME280;52144;48.040;-1.594;2023-02-15T00:29:26;102096.66;;;6.27;85.15
46211;BME280;52144;48.040;-1.594;2023-02-15T00:31:54;102091.28;;;6.42;83.76
46211;BME280;52144;48.040;-1.594;2023-02-15T00:34:25;102097.44;;;6.46;83.97
46211;BME280;52144;48.040;-1.594;2023-02-15T00:36:53;102093.03;;;6.45;83.92
46211;BME280;52144;48.040;-1.594;2023-02-15T00:39:21;102085.84;;;6.59;83.36
46211;BME280;52144;48.040;-1.594;2023-02-15T00:41:51;102089.31;;;6.72;82.72
46211;BME280;52144;48.040;-1.594;2023-02-15T00:44:19;102092.69;;;6.89;81.32
46211;BME280;52144;48.040;-1.594;2023-02-15T00:46:47;102083.88;;;6.86;81.64
46211;BME280;52144;48.040;-1.594;2023-02-15T00:49:14;102091.03;;;6.74;81.73
46211;BME280;52144;48.040;-1.594;2023-02-15T00:51:42;102089.16;;;6.86;81.54
46211;BME280;52144;48.040;-1.594;2023-02-15T00:54:10;102091.81;;;6.89;81.27
46211;BME280;52144;48.040;-1.594;2023-02-15T00:56:38;102087.31;;;6.97;80.84
46211;BME280;52144;48.040;-1.594;2023-02-15T00:59:08;102084.59;;;7.03;79.90
46211;BME280;52144;48.040;-1.594;2023-02-15T01:01:36;102079.44;;;6.89;80.95
46211;BME280;52144;48.040;-1.594;2023-02-15T01:04:04;102076.06;;;6.72;81.05
46211;BME280;52144;48.040;-1.594;2023-02-15T01:06:32;102081.38;;;6.70;81.97
46211;BME280;52144;48.040;-1.594;2023-02-15T01:08:59;102077.78;;;6.76;80.81
46211;BME280;52144;48.040;-1.594;2023-02-15T01:11:27;102079.59;;;6.69;81.56
46211;BME280;52144;48.040;-1.594;2023-02-15T01:13:56;102076.16;;;6.58;82.02
46211;BME280;52144;48.040;-1.594;2023-02-15T01:16:27;102070.81;;;6.64;82.24
46211;BME280;52144;48.040;-1.594;2023-02-15T01:18:56;102069.13;;;6.51;82.99
46211;BME280;52144;48.040;-1.594;2023-02-15T01:21:25;102074.34;;;6.63;82.21
46211;BME280;52144;48.040;-1.594;2023-02-15T01:23:53;102073.38;;;6.76;81.63
46211;BME280;52144;48.040;-1.594;2023-02-15T01:26:21;102072.41;;;6.83;81.16
46211;BME280;52144;48.040;-1.594;2023-02-15T01:28:49;102070.63;;;6.86;81.52
46211;BME280;52144;48.040;-1.594;2023-02-15T01:31:19;102067.84;;;6.99;80.44
46211;BME280;52144;48.040;-1.594;2023-02-15T01:33:49;102076.53;;;7.15;79.31
46211;BME280;52144;48.040;-1.594;2023-02-15T01:36:17;102078.94;;;7.38;78.38
46211;BME280;52144;48.040;-1.594;2023-02-15T01:38:45;102070.94;;;7.43;77.16
46211;BME280;52144;48.040;-1.594;2023-02-15T01:41:13;102068.53;;;7.18;78.05
46211;BME280;52144;48.040;-1.594;2023-02-15T01:43:52;102070.38;;;7.12;79.22
46211;BME280;52144;48.040;-1.594;2023-02-15T01:46:26;102073.97;;;7.06;79.10
46211;BME280;52144;48.040;-1.594;2023-02-15T01:49:01;102071.19;;;7.18;78.62
46211;BME280;52144;48.040;-1.594;2023-02-15T01:51:31;102059.75;;;7.15;78.90
46211;BME280;52144;48.040;-1.594;2023-02-15T01:54:03;102068.47;;;7.26;78.14
46211;BME280;52144;48.040;-1.594;2023-02-15T01:56:35;102063.22;;;7.18;78.59
46211;BME280;52144;48.040;-1.594;2023-02-15T01:59:06;102057.25;;;6.99;78.77
46211;BME280;52144;48.040;-1.594;2023-02-15T02:01:36;102054.72;;;6.87;79.78
46211;BME280;52144;48.040;-1.594;2023-02-15T02:04:11;102052.88;;;6.94;79.26
46211;BME280;52144;48.040;-1.594;2023-02-15T02:06:41;102049.34;;;6.93;79.44
46211;BME280;52144;48.040;-1.594;2023-02-15T02:09:09;102044.09;;;6.90;80.58
46211;BME280;52144;48.040;-1.594;2023-02-15T02:11:38;102051.00;;;7.05;78.96
46211;BME280;52144;48.040;-1.594;2023-02-15T02:14:07;102050.16;;;7.01;80.20
46211;BME280;52144;48.040;-1.594;2023-02-15T02:16:41;102042.94;;;7.17;78.89
46211;BME280;52144;48.040;-1.594;2023-02-15T02:19:56;102046.53;;;7.12;78.26
46211;BME280;52144;48.040;-1.594;2023-02-15T02:25:59;102042.09;;;7.12;79.00
46211;BME280;52144;48.040;-1.594;2023-02-15T02:28:54;102044.78;;;7.09;78.29
46211;BME280;52144;48.040;-1.594;2023-02-15T02:34:20;102031.41;;;7.18;77.69
46211;BME280;52144;48.040;-1.594;2023-02-15T02:36:57;102029.59;;;7.25;77.29
46211;BME280;52144;48.040;-1.594;2023-02-15T02:39:33;102028.63;;;7.32;76.32
46211;BME280;52144;48.040;-1.594;2023-02-15T02:42:10;102032.91;;;7.42;76.28
46211;BME280;52144;48.040;-1.594;2023-02-15T02:44:42;102026.66;;;7.50;75.58
46211;BME280;52144;48.040;-1.594;2023-02-15T02:47:14;102024.16;;;7.36;76.91
46211;BME280;52144;48.040;-1.594;2023-02-15T02:49:46;102029.34;;;7.47;74.80
46211;BME280;52144;48.040;-1.594;2023-02-15T02:52:38;102019.34;;;6.93;78.89
46211;BME280;52144;48.040;-1.594;2023-02-15T02:55:10;102019.34;;;6.90;79.43
46211;BME280;52144;48.040;-1.594;2023-02-15T02:57:45;102016.44;;;7.16;76.65
46211;BME280;52144;48.040;-1.594;2023-02-15T03:00:15;102016.69;;;6.94;78.92
46211;BME280;52144;48.040;-1.594;2023-02-15T03:02:47;102013.28;;;6.78;78.83
46211;BME280;52144;48.040;-1.594;2023-02-15T03:05:21;102006.34;;;6.67;79.71
46211;BME280;52144;48.040;-1.594;2023-02-15T03:07:52;102009.94;;;6.58;80.75
46211;BME280;52144;48.040;-1.594;2023-02-15T03:10:22;102010.78;;;6.65;80.13
46211;BME280;52144;48.040;-1.594;2023-02-15T03:12:51;102009.94;;;6.58;80.85
46211;BME280;52144;48.040;-1.594;2023-02-15T03:15:21;102007.31;;;6.58;80.56
46211;BME280;52144;48.040;-1.594;2023-02-15T03:17:55;101993.25;;;6.50;81.93
46211;BME280;52144;48.040;-1.594;2023-02-15T03:20:28;101999.34;;;6.59;80.96
46211;BME280;52144;48.040;-1.594;2023-02-15T03:22:59;101996.38;;;6.92;78.85
46211;BME280;52144;48.040;-1.594;2023-02-15T03:25:32;101995.28;;;7.13;77.21
46211;BME280;52144;48.040;-1.594;2023-02-15T03:28:03;101999.88;;;6.95;78.68
46211;BME280;52144;48.040;-1.594;2023-02-15T03:30:34;101997.34;;;6.81;79.74
46211;BME280;52144;48.040;-1.594;2023-02-15T03:33:03;101991.31;;;6.67;80.28
46211;BME280;52144;48.040;-1.594;2023-02-15T03:35:39;101989.69;;;6.51;81.33
46211;BME280;52144;48.040;-1.594;2023-02-15T03:38:13;101991.44;;;6.55;81.13
46211;BME280;52144;48.040;-1.594;2023-02-15T03:40:45;101982.44;;;6.71;80.12
46211;BME280;52144;48.040;-1.594;2023-02-15T03:43:38;101986.00;;;6.70;80.32
46211;BME280;52144;48.040;-1.594;2023-02-15T03:46:15;101987.03;;;6.52;81.00
46211;BME280;52144;48.040;-1.594;2023-02-15T03:48:47;101994.97;;;6.54;81.37
46211;BME280;52144;48.040;-1.594;2023-02-15T03:51:21;101984.47;;;6.43;81.66
46211;BME280;52144;48.040;-1.594;2023-02-15T03:54:04;101985.38;;;6.42;81.62
46211;BME280;52144;48.040;-1.594;2023-02-15T03:56:34;101986.28;;;6.36;81.38
46211;BME280;52144;48.040;-1.594;2023-02-15T03:59:03;101987.19;;;6.34;81.40
46211;BME280;52144;48.040;-1.594;2023-02-15T04:01:58;101994.94;;;6.60;80.61
46211;BME280;52144;48.040;-1.594;2023-02-15T04:04:35;101996.75;;;6.52;79.73
46211;BME280;52144;48.040;-1.594;2023-02-15T04:07:07;101994.19;;;6.42;80.53
46211;BME280;52144;48.040;-1.594;2023-02-15T04:09:35;101996.88;;;6.39;80.33
46211;BME280;52144;48.040;-1.594;2023-02-15T04:12:21;101984.69;;;6.14;81.63
46211;BME280;52144;48.040;-1.594;2023-02-15T04:14:48;101987.91;;;6.51;80.02
46211;BME280;52144;48.040;-1.594;2023-02-15T04:17:35;101987.78;;;6.68;79.36
46211;BME280;52144;48.040;-1.594;2023-02-15T04:20:04;101994.94;;;6.57;79.42
46211;BME280;52144;48.040;-1.594;2023-02-15T04:22:51;101989.34;;;6.88;77.78
46211;BME280;52144;48.040;-1.594;2023-02-15T04:25:36;101994.94;;;6.60;78.84
46211;BME280;52144;48.040;-1.594;2023-02-15T04:28:04;101994.94;;;6.55;78.77
46211;BME280;52144;48.040;-1.594;2023-02-15T04:30:34;101989.69;;;6.51;78.62
46211;BME280;52144;48.040;-1.594;2023-02-15T04:33:02;101987.69;;;6.77;78.19
46211;BME280;52144;48.040;-1.594;2023-02-15T04:35:30;101985.16;;;6.67;78.32
46211;BME280;52144;48.040;-1.594;2023-02-15T04:37:59;101985.94;;;6.76;77.69
46211;BME280;52144;48.040;-1.594;2023-02-15T04:40:27;101979.78;;;6.74;78.01
46211;BME280;52144;48.040;-1.594;2023-02-15T04:42:55;101977.19;;;6.68;77.19
46211;BME280;52144;48.040;-1.594;2023-02-15T04:45:23;101977.09;;;6.77;76.60
46211;BME280;52144;48.040;-1.594;2023-02-15T04:47:50;101980.75;;;6.64;77.07
46211;BME280;52144;48.040;-1.594;2023-02-15T04:50:18;101977.38;;;6.50;77.32
46211;BME280;52144;48.040;-1.594;2023-02-15T04:52:46;101974.78;;;6.39;78.71
46211;BME280;52144;48.040;-1.594;2023-02-15T04:55:15;101974.00;;;6.29;79.31
46211;BME280;52144;48.040;-1.594;2023-02-15T04:57:43;101979.16;;;6.45;79.54
46211;BME280;52144;48.040;-1.594;2023-02-15T05:00:12;101978.28;;;6.44;78.55
46211;BME280;52144;48.040;-1.594;2023-02-15T05:02:39;101979.16;;;6.48;78.80
46211;BME280;52144;48.040;-1.594;2023-02-15T05:05:07;101971.25;;;6.40;78.88
46211;BME280;52144;48.040;-1.594;2023-02-15T05:07:39;101978.22;;;6.50;78.70
46211;BME280;52144;48.040;-1.594;2023-02-15T05:10:08;101977.44;;;6.40;78.50
46211;BME280;52144;48.040;-1.594;2023-02-15T05:12:37;101973.72;;;6.61;78.49
46211;BME280;52144;48.040;-1.594;2023-02-15T05:15:05;101971.09;;;6.55;78.22
46211;BME280;52144;48.040;-1.594;2023-02-15T05:17:33;101975.47;;;6.64;77.39
46211;BME280;52144;48.040;-1.594;2023-02-15T05:20:00;101977.91;;;6.84;77.01
46211;BME280;52144;48.040;-1.594;2023-02-15T05:22:28;101971.66;;;6.91;76.41
46211;BME280;52144;48.040;-1.594;2023-02-15T05:24:56;101970.72;;;6.94;76.20
46211;BME280;52144;48.040;-1.594;2023-02-15T05:27:42;101971.75;;;6.82;76.87
46211;BME280;52144;48.040;-1.594;2023-02-15T05:30:42;101963.28;;;6.45;78.43
46211;BME280;52144;48.040;-1.594;2023-02-15T05:33:11;101963.03;;;6.72;77.03
46211;BME280;52144;48.040;-1.594;2023-02-15T05:35:38;101960.44;;;6.68;76.99
46211;BME280;52144;48.040;-1.594;2023-02-15T05:38:06;101964.69;;;6.82;76.02
46211;BME280;52144;48.040;-1.594;2023-02-15T05:40:34;101964.53;;;6.95;75.11
46211;BME280;52144;48.040;-1.594;2023-02-15T05:43:03;101964.47;;;7.01;75.04
46211;BME280;52144;48.040;-1.594;2023-02-15T05:45:31;101963.63;;;6.99;75.13
46211;BME280;52144;48.040;-1.594;2023-02-15T05:47:59;101961.91;;;6.92;75.28
46211;BME280;52144;48.040;-1.594;2023-02-15T05:50:26;101960.97;;;6.97;75.02
46211;BME280;52144;48.040;-1.594;2023-02-15T05:52:54;101972.78;;;6.67;76.60
46211;BME280;52144;48.040;-1.594;2023-02-15T05:55:22;101969.72;;;7.04;73.83
46211;BME280;52144;48.040;-1.594;2023-02-15T05:57:50;101971.53;;;7.02;74.42
46211;BME280;52144;48.040;-1.594;2023-02-15T06:00:19;101978.53;;;7.09;74.29
46211;BME280;52144;48.040;-1.594;2023-02-15T06:02:47;101982.16;;;6.99;74.20
46211;BME280;52144;48.040;-1.594;2023-02-15T06:05:15;101981.31;;;6.98;74.41
46211;BME280;52144;48.040;-1.594;2023-02-15T06:07:43;101983.78;;;7.12;72.91
46211;BME280;52144;48.040;-1.594;2023-02-15T06:10:12;101987.28;;;7.14;72.53
46211;BME280;52144;48.040;-1.594;2023-02-15T06:12:39;101982.13;;;7.02;72.84
46211;BME280;52144;48.040;-1.594;2023-02-15T06:15:08;101990.06;;;7.03;73.29
46211;BME280;52144;48.040;-1.594;2023-02-15T06:17:37;101986.41;;;7.14;73.32
46211;BME280;52144;48.040;-1.594;2023-02-15T06:20:06;101998.81;;;7.12;73.34
46211;BME280;52144;48.040;-1.594;2023-02-15T06:22:34;101991.56;;;7.26;72.97
46211;BME280;52144;48.040;-1.594;2023-02-15T06:25:02;102004.81;;;7.28;71.46
46211;BME280;52144;48.040;-1.594;2023-02-15T06:27:30;101999.72;;;7.09;73.13
46211;BME280;52144;48.040;-1.594;2023-02-15T06:29:58;102005.97;;;7.02;71.71
46211;BME280;52144;48.040;-1.594;2023-02-15T06:32:26;102008.66;;;6.99;74.08
46211;BME280;52144;48.040;-1.594;2023-02-15T06:34:55;102009.03;;;6.62;73.93
46211;BME280;52144;48.040;-1.594;2023-02-15T06:37:22;102011.78;;;6.48;74.57
46211;BME280;52144;48.040;-1.594;2023-02-15T06:39:50;102011.75;;;6.51;77.46
46211;BME280;52144;48.040;-1.594;2023-02-15T06:42:18;102010.94;;;6.45;75.18
46211;BME280;52144;48.040;-1.594;2023-02-15T06:44:46;102019.06;;;6.21;77.01
46211;BME280;52144;48.040;-1.594;2023-02-15T06:47:14;102016.47;;;6.14;76.54
46211;BME280;52144;48.040;-1.594;2023-02-15T06:49:41;102023.50;;;6.18;74.78
46211;BME280;52144;48.040;-1.594;2023-02-15T06:52:11;102020.06;;;6.02;77.97
46211;BME280;52144;48.040;-1.594;2023-02-15T06:54:39;102013.06;;;5.96;79.23
46211;BME280;52144;48.040;-1.594;2023-02-15T06:57:07;102025.38;;;5.97;78.13
46211;BME280;52144;48.040;-1.594;2023-02-15T06:59:35;102026.22;;;6.04;78.25
46211;BME280;52144;48.040;-1.594;2023-02-15T07:02:03;102024.34;;;6.18;77.00
46211;BME280;52144;48.040;-1.594;2023-02-15T07:04:31;102033.16;;;6.25;75.41
46211;BME280;52144;48.040;-1.594;2023-02-15T07:06:59;102030.59;;;6.13;77.00
46211;BME280;52144;48.040;-1.594;2023-02-15T07:09:28;102038.56;;;6.03;77.68
46211;BME280;52144;48.040;-1.594;2023-02-15T07:11:56;102032.50;;;5.80;79.07
46211;BME280;52144;48.040;-1.594;2023-02-15T07:14:41;102035.28;;;5.54;81.21
46211;BME280;52144;48.040;-1.594;2023-02-15T07:17:09;102039.66;;;5.56;81.36
46211;BME280;52144;48.040;-1.594;2023-02-15T07:19:56;102036.06;;;5.74;81.01
46211;BME280;52144;48.040;-1.594;2023-02-15T07:22:24;102041.22;;;6.03;78.68
46211;BME280;52144;48.040;-1.594;2023-02-15T07:24:53;102030.69;;;6.00;78.68
46211;BME280;52144;48.040;-1.594;2023-02-15T07:27:21;102044.63;;;6.24;75.42
46211;BME280;52144;48.040;-1.594;2023-02-15T07:29:49;102040.25;;;6.20;76.59
46211;BME280;52144;48.040;-1.594;2023-02-15T07:32:17;102042.81;;;6.32;77.19
46211;BME280;52144;48.040;-1.594;2023-02-15T07:34:45;102052.44;;;6.42;75.90
46211;BME280;52144;48.040;-1.594;2023-02-15T07:37:13;102053.25;;;6.49;75.38
46211;BME280;52144;48.040;-1.594;2023-02-15T07:39:41;102050.59;;;6.54;74.87
46211;BME280;52144;48.040;-1.594;2023-02-15T07:42:10;102058.53;;;6.52;74.33
46211;BME280;52144;48.040;-1.594;2023-02-15T07:44:38;102066.59;;;6.37;76.14
46211;BME280;52144;48.040;-1.594;2023-02-15T07:47:06;102077.28;;;6.18;76.27
46211;BME280;52144;48.040;-1.594;2023-02-15T07:49:33;102069.56;;;5.74;78.73
46211;BME280;52144;48.040;-1.594;2023-02-15T07:52:01;102074.88;;;5.71;77.77
46211;BME280;52144;48.040;-1.594;2023-02-15T07:54:29;102075.91;;;5.23;81.18
46211;BME280;52144;48.040;-1.594;2023-02-15T07:56:57;102082.03;;;5.38;81.61
46211;BME280;52144;48.040;-1.594;2023-02-15T07:59:26;102080.25;;;5.40;82.08
46211;BME280;52144;48.040;-1.594;2023-02-15T08:01:54;102081.13;;;5.39;81.82
46211;BME280;52144;48.040;-1.594;2023-02-15T08:04:23;102086.38;;;5.51;81.88
46211;BME280;52144;48.040;-1.594;2023-02-15T08:06:52;102081.91;;;5.75;80.60
46211;BME280;52144;48.040;-1.594;2023-02-15T08:09:21;102080.06;;;5.88;80.10
46211;BME280;52144;48.040;-1.594;2023-02-15T08:11:49;102081.75;;;6.12;78.71
46211;BME280;52144;48.040;-1.594;2023-02-15T08:14:18;102084.31;;;6.24;77.60
46211;BME280;52144;48.040;-1.594;2023-02-15T08:16:49;102082.59;;;6.21;78.61
46211;BME280;52144;48.040;-1.594;2023-02-15T08:19:19;102077.38;;;6.09;78.49
46211;BME280;52144;48.040;-1.594;2023-02-15T08:21:49;102081.75;;;6.12;79.01
46211;BME280;52144;48.040;-1.594;2023-02-15T08:24:19;102084.31;;;6.26;79.60
46211;BME280;52144;48.040;-1.594;2023-02-15T08:26:48;102081.63;;;6.33;79.67
46211;BME280;52144;48.040;-1.594;2023-02-15T08:29:18;102081.56;;;6.42;78.77
46211;BME280;52144;48.040;-1.594;2023-02-15T08:31:49;102078.88;;;6.49;77.87
46211;BME280;52144;48.040;-1.594;2023-02-15T08:34:18;102079.00;;;6.29;78.43
46211;BME280;52144;48.040;-1.594;2023-02-15T08:36:47;102080.72;;;6.36;79.27
46211;BME280;52144;48.040;-1.594;2023-02-15T08:39:15;102092.19;;;6.39;78.58
46211;BME280;52144;48.040;-1.594;2023-02-15T08:41:44;102088.66;;;6.37;80.18
46211;BME280;52144;48.040;-1.594;2023-02-15T08:44:14;102082.31;;;6.61;78.63
46211;BME280;52144;48.040;-1.594;2023-02-15T08:46:43;102082.94;;;6.90;78.13
46211;BME280;52144;48.040;-1.594;2023-02-15T08:49:15;102079.69;;;6.60;80.63
46211;BME280;52144;48.040;-1.594;2023-02-15T08:51:44;102090.03;;;6.88;79.08
46211;BME280;52144;48.040;-1.594;2023-02-15T08:54:14;102088.94;;;7.10;76.83
46211;BME280;52144;48.040;-1.594;2023-02-15T08:56:44;102089.66;;;7.29;76.73
46211;BME280;52144;48.040;-1.594;2023-02-15T08:59:15;102094.22;;;7.12;77.62
46211;BME280;52144;48.040;-1.594;2023-02-15T09:01:44;102091.34;;;7.36;78.77
46211;BME280;52144;48.040;-1.594;2023-02-15T09:04:13;102094.97;;;7.29;77.61
46211;BME280;52144;48.040;-1.594;2023-02-15T09:06:44;102101.91;;;7.41;77.22
46211;BME280;52144;48.040;-1.594;2023-02-15T09:09:15;102088.53;;;7.50;76.15
46211;BME280;52144;48.040;-1.594;2023-02-15T09:11:44;102094.56;;;7.64;76.93
46211;BME280;52144;48.040;-1.594;2023-02-15T09:14:14;102096.47;;;7.53;78.33
46211;BME280;52144;48.040;-1.594;2023-02-15T09:16:43;102100.63;;;7.74;76.77
46211;BME280;52144;48.040;-1.594;2023-02-15T09:19:14;102095.19;;;7.83;75.67
46211;BME280;52144;48.040;-1.594;2023-02-15T09:21:42;102097.81;;;7.90;75.39
46211;BME280;52144;48.040;-1.594;2023-02-15T09:24:11;102091.03;;;7.62;78.17
46211;BME280;52144;48.040;-1.594;2023-02-15T09:26:42;102101.50;;;7.78;78.75
46211;BME280;52144;48.040;-1.594;2023-02-15T09:29:11;102098.00;;;7.73;77.76
46211;BME280;52144;48.040;-1.594;2023-02-15T09:31:44;102092.59;;;7.82;77.19
46211;BME280;52144;48.040;-1.594;2023-02-15T09:34:15;102095.88;;;7.99;78.24
46211;BME280;52144;48.040;-1.594;2023-02-15T09:36:44;102099.31;;;8.08;77.27
46211;BME280;52144;48.040;-1.594;2023-02-15T09:39:15;102101.63;;;8.34;76.45
46211;BME280;52144;48.040;-1.594;2023-02-15T09:42:13;102098.78;;;8.48;75.67
46211;BME280;52144;48.040;-1.594;2023-02-15T09:48:21;102113.63;;;9.14;74.65
46211;BME280;52144;48.040;-1.594;2023-02-15T09:51:03;102115.16;;;9.29;74.08
46211;BME280;52144;48.040;-1.594;2023-02-15T09:53:47;102114.63;;;9.56;73.08
46211;BME280;52144;48.040;-1.594;2023-02-15T09:56:29;102121.88;;;9.48;73.14
46211;BME280;52144;48.040;-1.594;2023-02-15T09:59:05;102131.88;;;9.82;73.69
46211;BME280;52144;48.040;-1.594;2023-02-15T10:01:44;102131.91;;;10.24;71.76
46211;BME280;52144;48.040;-1.594;2023-02-15T10:04:31;102134.97;;;10.46;69.80
46211;BME280;52144;48.040;-1.594;2023-02-15T10:07:14;102140.81;;;10.62;69.19
46211;BME280;52144;48.040;-1.594;2023-02-15T10:09:58;102139.00;;;10.64;70.57
46211;BME280;52144;48.040;-1.594;2023-02-15T10:12:41;102138.25;;;10.95;70.27
46211;BME280;52144;48.040;-1.594;2023-02-15T10:15:19;102141.16;;;11.21;69.29
46211;BME280;52144;48.040;-1.594;2023-02-15T10:18:01;102142.66;;;11.32;69.19
46211;BME280;52144;48.040;-1.594;2023-02-15T10:20:40;102144.44;;;11.64;68.04
46211;BME280;52144;48.040;-1.594;2023-02-15T10:23:34;102147.75;;;11.74;67.78
46211;BME280;52144;48.040;-1.594;2023-02-15T10:26:12;102143.63;;;11.95;66.51
46211;BME280;52144;48.040;-1.594;2023-02-15T10:28:46;102140.00;;;11.97;68.13
46211;BME280;52144;48.040;-1.594;2023-02-15T10:31:26;102135.72;;;12.21;66.75
46211;BME280;52144;48.040;-1.594;2023-02-15T10:34:11;102140.63;;;12.35;66.34
46211;BME280;52144;48.040;-1.594;2023-02-15T10:36:58;102146.13;;;12.59;65.81
46211;BME280;52144;48.040;-1.594;2023-02-15T10:39:41;102129.50;;;12.77;66.09
46211;BME280;52144;48.040;-1.594;2023-02-15T10:42:20;102137.75;;;12.98;66.44
46211;BME280;52144;48.040;-1.594;2023-02-15T10:45:09;102142.38;;;13.19;65.60
46211;BME280;52144;48.040;-1.594;2023-02-15T10:47:55;102135.38;;;13.15;66.48
46211;BME280;52144;48.040;-1.594;2023-02-15T10:50:36;102130.09;;;12.87;67.69
46211;BME280;52144;48.040;-1.594;2023-02-15T10:53:20;102135.69;;;13.06;67.96
46211;BME280;52144;48.040;-1.594;2023-02-15T10:55:56;102133.47;;;13.19;67.58
46211;BME280;52144;48.040;-1.594;2023-02-15T10:58:35;102136.41;;;13.38;68.88
46211;BME280;52144;48.040;-1.594;2023-02-15T11:01:15;102135.09;;;13.75;66.00
46211;BME280;52144;48.040;-1.594;2023-02-15T11:04:25;102127.72;;;14.05;64.16
46211;BME280;52144;48.040;-1.594;2023-02-15T11:07:02;102124.56;;;13.94;64.86
46211;BME280;52144;48.040;-1.594;2023-02-15T11:09:37;102130.84;;;14.16;64.57
46211;BME280;52144;48.040;-1.594;2023-02-15T11:12:13;102134.00;;;14.04;66.11
46211;BME280;52144;48.040;-1.594;2023-02-15T11:14:46;102124.75;;;14.13;65.28
46211;BME280;52144;48.040;-1.594;2023-02-15T11:17:21;102117.09;;;14.25;65.70
46211;BME280;52144;48.040;-1.594;2023-02-15T11:19:56;102117.03;;;14.27;65.56
46211;BME280;52144;48.040;-1.594;2023-02-15T11:22:27;102119.84;;;13.77;67.62
46211;BME280;52144;48.040;-1.594;2023-02-15T11:24:57;102111.25;;;14.14;67.43
46211;BME280;52144;48.040;-1.594;2023-02-15T11:27:30;102112.44;;;14.07;68.64
46211;BME280;52144;48.040;-1.594;2023-02-15T11:30:01;102108.44;;;14.19;68.33
46211;BME280;52144;48.040;-1.594;2023-02-15T11:32:33;102104.56;;;14.26;67.76
46211;BME280;52144;48.040;-1.594;2023-02-15T11:35:05;102114.56;;;13.74;70.11
46211;BME280;52144;48.040;-1.594;2023-02-15T11:37:40;102112.00;;;14.41;67.98
46211;BME280;52144;48.040;-1.594;2023-02-15T11:40:20;102105.69;;;14.42;67.61
46211;BME280;52144;48.040;-1.594;2023-02-15T11:42:51;102112.44;;;14.53;68.63
46211;BME280;52144;48.040;-1.594;2023-02-15T11:45:26;102107.25;;;14.26;69.03
46211;BME280;52144;48.040;-1.594;2023-02-15T11:47:54;102099.09;;;14.73;68.28
46211;BME280;52144;48.040;-1.594;2023-02-15T11:50:24;102097.81;;;15.04;66.11
46211;BME280;52144;48.040;-1.594;2023-02-15T11:52:54;102095.28;;;15.21;65.75
46211;BME280;52144;48.040;-1.594;2023-02-15T11:55:22;102093.97;;;14.89;66.52
46211;BME280;52144;48.040;-1.594;2023-02-15T11:57:55;102082.91;;;14.76;65.73
46211;BME280;52144;48.040;-1.594;2023-02-15T12:00:31;102078.44;;;14.97;65.46
46211;BME280;52144;48.040;-1.594;2023-02-15T12:03:09;102074.13;;;14.93;66.01
46211;BME280;52144;48.040;-1.594;2023-02-15T12:05:42;102065.81;;;14.57;66.99
46211;BME280;52144;48.040;-1.594;2023-02-15T12:08:17;102077.66;;;14.73;68.77
46211;BME280;52144;48.040;-1.594;2023-02-15T12:10:58;102069.88;;;14.88;67.63
46211;BME280;52144;48.040;-1.594;2023-02-15T12:13:29;102074.72;;;15.00;67.52
46211;BME280;52144;48.040;-1.594;2023-02-15T12:15:58;102067.56;;;15.21;66.76
46211;BME280;52144;48.040;-1.594;2023-02-15T12:18:38;102069.66;;;15.35;67.22
46211;BME280;52144;48.040;-1.594;2023-02-15T12:21:09;102064.88;;;15.41;66.43
46211;BME280;52144;48.040;-1.594;2023-02-15T12:23:43;102065.34;;;15.51;66.92
46211;BME280;52144;48.040;-1.594;2023-02-15T12:26:14;102065.06;;;15.57;66.27
46211;BME280;52144;48.040;-1.594;2023-02-15T12:28:52;102071.25;;;15.59;66.76
46211;BME280;52144;48.040;-1.594;2023-02-15T12:31:27;102072.25;;;15.77;66.02
46211;BME280;52144;48.040;-1.594;2023-02-15T12:33:57;102066.94;;;15.76;65.64
46211;BME280;52144;48.040;-1.594;2023-02-15T12:36:30;102061.00;;;15.88;66.47
46211;BME280;52144;48.040;-1.594;2023-02-15T12:39:04;102062.50;;;16.13;65.38
46211;BME280;52144;48.040;-1.594;2023-02-15T12:41:33;102060.75;;;16.12;64.23
46211;BME280;52144;48.040;-1.594;2023-02-15T12:44:16;102067.75;;;15.97;66.28
46211;BME280;52144;48.040;-1.594;2023-02-15T12:46:56;102061.13;;;16.23;64.64
46211;BME280;52144;48.040;-1.594;2023-02-15T12:49:25;102055.69;;;16.42;64.73
46211;BME280;52144;48.040;-1.594;2023-02-15T12:51:55;102061.34;;;16.18;65.96
46211;BME280;52144;48.040;-1.594;2023-02-15T12:54:30;102057.03;;;16.33;64.92
46211;BME280;52144;48.040;-1.594;2023-02-15T12:56:58;102061.19;;;16.58;64.50
46211;BME280;52144;48.040;-1.594;2023-02-15T12:59:27;102055.94;;;16.37;64.71
46211;BME280;52144;48.040;-1.594;2023-02-15T13:01:55;102048.09;;;16.33;64.81
46211;BME280;52144;48.040;-1.594;2023-02-15T13:04:25;102051.47;;;16.19;66.11
46211;BME280;52144;48.040;-1.594;2023-02-15T13:06:57;102049.47;;;16.41;64.97
46211;BME280;52144;48.040;-1.594;2023-02-15T13:09:35;102047.59;;;16.61;63.96
46211;BME280;52144;48.040;-1.594;2023-02-15T13:12:17;102045.47;;;16.68;64.61
46211;BME280;52144;48.040;-1.594;2023-02-15T13:14:48;102052.94;;;16.97;63.23
46211;BME280;52144;48.040;-1.594;2023-02-15T13:17:21;102036.25;;;17.08;62.58
46211;BME280;52144;48.040;-1.594;2023-02-15T13:19:52;102036.66;;;17.18;62.56
46211;BME280;52144;48.040;-1.594;2023-02-15T13:22:23;102033.53;;;17.25;61.50
46211;BME280;52144;48.040;-1.594;2023-02-15T13:24:56;102042.22;;;16.61;64.00